Pagrindinis puslapis
METAR-TAF:

METAR-TAF

Oro uostai :

Nelson Lagoon, Aliaska, Jungtinės Amerikos Valstijos

platuma: 56-00-27N, ilguma: 161-09-37W, Aukštis: 4 m

Dabartinis oras

Ataskaita buvo paskelbta 31 minutes, ne 19:11 UTC
Vėjas 4 kt iš Pietryčių
Temperatūra 3°C
Drėgmė 93%
Slėgis 1021 hPa
Matomumas: 16.1 km
Mažai debesys ne aukštis 900 ft

METAR: PAOU 281911Z AUTO 13004KT 10SM FEW009 03/02 A3015 RMK AO2 PNO $

Laikas: 11:42 (19:42 UTC)


TAF: trūkstamas

Orai ataskaitas ir orų prognozės (METAR, TAF).

turimą stotys yra geltonos ir raudonos taškus žemėlapyje.

Perkelti pele per norėdami pamatyti stoties vardą.

Tada spustelėkite, norėdami matyti oro stebėjimo ir prognozės.

Norėdami pakeisti žemėlapį: spustelėkite ant žalios mygtukų su juodo kryžiaus žemyn,; žalią mygtuką su brūkšneliu, jei norite nutolinti; arba žalių rodyklių gretimoms žemėlapius.


METAR-TAF: